sensor_id;sensor_type;location;lat;lon;timestamp;P1;durP1;ratioP1;P2;durP2;ratioP2
70787;SDS011;68385;47.752;19.100;2023-08-12T00:01:24;0.90;;;0.30;;
70787;SDS011;68385;47.752;19.100;2023-08-12T00:04:26;0.80;;;0.20;;
70787;SDS011;68385;47.752;19.100;2023-08-12T00:07:28;1.08;;;0.35;;
70787;SDS011;68385;47.752;19.100;2023-08-12T00:10:30;0.80;;;0.20;;
70787;SDS011;68385;47.752;19.100;2023-08-12T00:13:32;0.85;;;0.28;;
70787;SDS011;68385;47.752;19.100;2023-08-12T00:16:34;0.70;;;0.20;;
70787;SDS011;68385;47.752;19.100;2023-08-12T00:19:36;0.90;;;0.20;;
70787;SDS011;68385;47.752;19.100;2023-08-12T00:22:37;0.70;;;0.20;;
70787;SDS011;68385;47.752;19.100;2023-08-12T00:25:39;1.00;;;0.30;;
70787;SDS011;68385;47.752;19.100;2023-08-12T00:28:41;1.10;;;0.40;;
70787;SDS011;68385;47.752;19.100;2023-08-12T00:31:43;3.30;;;0.73;;
70787;SDS011;68385;47.752;19.100;2023-08-12T00:34:45;1.00;;;0.30;;
70787;SDS011;68385;47.752;19.100;2023-08-12T00:37:47;0.95;;;0.30;;
70787;SDS011;68385;47.752;19.100;2023-08-12T00:40:48;0.80;;;0.20;;
70787;SDS011;68385;47.752;19.100;2023-08-12T00:43:50;1.20;;;0.73;;
70787;SDS011;68385;47.752;19.100;2023-08-12T00:46:52;0.80;;;0.20;;
70787;SDS011;68385;47.752;19.100;2023-08-12T00:49:54;0.80;;;0.20;;
70787;SDS011;68385;47.752;19.100;2023-08-12T00:52:58;1.25;;;0.30;;
70787;SDS011;68385;47.752;19.100;2023-08-12T00:56:00;3.47;;;0.70;;
70787;SDS011;68385;47.752;19.100;2023-08-12T00:59:03;0.73;;;0.20;;
70787;SDS011;68385;47.752;19.100;2023-08-12T01:02:06;1.00;;;0.20;;
70787;SDS011;68385;47.752;19.100;2023-08-12T01:05:08;0.70;;;0.20;;
70787;SDS011;68385;47.752;19.100;2023-08-12T01:08:10;1.35;;;0.52;;
70787;SDS011;68385;47.752;19.100;2023-08-12T01:18:06;1.00;;;0.20;;
70787;SDS011;68385;47.752;19.100;2023-08-12T01:21:09;0.70;;;0.20;;
70787;SDS011;68385;47.752;19.100;2023-08-12T01:24:14;0.90;;;0.22;;
70787;SDS011;68385;47.752;19.100;2023-08-12T01:27:16;0.88;;;0.22;;
70787;SDS011;68385;47.752;19.100;2023-08-12T01:30:18;0.70;;;0.20;;
70787;SDS011;68385;47.752;19.100;2023-08-12T01:33:24;0.70;;;0.20;;
70787;SDS011;68385;47.752;19.100;2023-08-12T01:36:28;0.70;;;0.20;;
70787;SDS011;68385;47.752;19.100;2023-08-12T01:39:32;0.70;;;0.20;;
70787;SDS011;68385;47.752;19.100;2023-08-12T01:42:35;1.50;;;0.20;;
70787;SDS011;68385;47.752;19.100;2023-08-12T01:45:37;0.70;;;0.20;;
70787;SDS011;68385;47.752;19.100;2023-08-12T01:48:40;0.90;;;0.20;;
70787;SDS011;68385;47.752;19.100;2023-08-12T01:51:42;0.70;;;0.20;;
70787;SDS011;68385;47.752;19.100;2023-08-12T01:54:44;0.70;;;0.20;;
70787;SDS011;68385;47.752;19.100;2023-08-12T01:57:45;0.80;;;0.20;;
70787;SDS011;68385;47.752;19.100;2023-08-12T02:00:47;0.80;;;0.20;;
70787;SDS011;68385;47.752;19.100;2023-08-12T02:03:49;0.80;;;0.20;;
70787;SDS011;68385;47.752;19.100;2023-08-12T02:06:52;0.70;;;0.20;;
70787;SDS011;68385;47.752;19.100;2023-08-12T02:09:54;1.80;;;0.30;;
70787;SDS011;68385;47.752;19.100;2023-08-12T02:12:56;0.65;;;0.13;;
70787;SDS011;68385;47.752;19.100;2023-08-12T02:15:58;0.80;;;0.20;;
70787;SDS011;68385;47.752;19.100;2023-08-12T02:19:01;0.70;;;0.20;;
70787;SDS011;68385;47.752;19.100;2023-08-12T02:22:03;0.77;;;0.20;;
70787;SDS011;68385;47.752;19.100;2023-08-12T02:25:05;1.10;;;0.30;;
70787;SDS011;68385;47.752;19.100;2023-08-12T02:28:07;1.00;;;0.30;;
70787;SDS011;68385;47.752;19.100;2023-08-12T02:31:09;1.20;;;0.40;;
70787;SDS011;68385;47.752;19.100;2023-08-12T02:38:46;1.10;;;0.33;;
70787;SDS011;68385;47.752;19.100;2023-08-12T02:41:48;0.70;;;0.20;;
70787;SDS011;68385;47.752;19.100;2023-08-12T02:44:50;0.80;;;0.20;;
70787;SDS011;68385;47.752;19.100;2023-08-12T02:47:52;0.73;;;0.20;;
70787;SDS011;68385;47.752;19.100;2023-08-12T02:50:55;0.90;;;0.30;;
70787;SDS011;68385;47.752;19.100;2023-08-12T02:53:56;0.80;;;0.30;;
70787;SDS011;68385;47.752;19.100;2023-08-12T02:56:58;0.90;;;0.20;;
70787;SDS011;68385;47.752;19.100;2023-08-12T03:00:00;0.80;;;0.20;;
70787;SDS011;68385;47.752;19.100;2023-08-12T03:03:03;0.70;;;0.20;;
70787;SDS011;68385;47.752;19.100;2023-08-12T03:06:06;0.70;;;0.20;;
70787;SDS011;68385;47.752;19.100;2023-08-12T03:09:08;0.70;;;0.20;;
70787;SDS011;68385;47.752;19.100;2023-08-12T03:12:09;0.80;;;0.20;;
70787;SDS011;68385;47.752;19.100;2023-08-12T03:15:12;0.68;;;0.20;;
70787;SDS011;68385;47.752;19.100;2023-08-12T03:18:14;0.77;;;0.20;;
70787;SDS011;68385;47.752;19.100;2023-08-12T03:21:15;0.80;;;0.20;;
70787;SDS011;68385;47.752;19.100;2023-08-12T03:24:17;0.70;;;0.20;;
70787;SDS011;68385;47.752;19.100;2023-08-12T03:27:20;0.70;;;0.20;;
70787;SDS011;68385;47.752;19.100;2023-08-12T03:30:21;0.77;;;0.20;;
70787;SDS011;68385;47.752;19.100;2023-08-12T03:33:23;0.85;;;0.20;;
70787;SDS011;68385;47.752;19.100;2023-08-12T03:36:25;0.93;;;0.47;;
70787;SDS011;68385;47.752;19.100;2023-08-12T03:39:27;1.10;;;0.40;;
70787;SDS011;68385;47.752;19.100;2023-08-12T03:42:29;0.90;;;0.20;;
70787;SDS011;68385;47.752;19.100;2023-08-12T03:45:31;0.80;;;0.20;;
70787;SDS011;68385;47.752;19.100;2023-08-12T03:48:32;0.70;;;0.15;;
70787;SDS011;68385;47.752;19.100;2023-08-12T03:51:34;0.83;;;0.30;;
70787;SDS011;68385;47.752;19.100;2023-08-12T03:54:36;1.23;;;0.47;;
70787;SDS011;68385;47.752;19.100;2023-08-12T03:57:38;0.70;;;0.20;;
70787;SDS011;68385;47.752;19.100;2023-08-12T04:00:40;0.93;;;0.30;;
70787;SDS011;68385;47.752;19.100;2023-08-12T04:03:44;0.70;;;0.20;;
70787;SDS011;68385;47.752;19.100;2023-08-12T04:06:46;1.37;;;0.40;;
70787;SDS011;68385;47.752;19.100;2023-08-12T04:09:49;0.90;;;0.20;;
70787;SDS011;68385;47.752;19.100;2023-08-12T04:12:51;0.70;;;0.20;;
70787;SDS011;68385;47.752;19.100;2023-08-12T04:15:53;0.93;;;0.30;;
70787;SDS011;68385;47.752;19.100;2023-08-12T04:18:54;0.70;;;0.20;;
70787;SDS011;68385;47.752;19.100;2023-08-12T04:21:56;0.90;;;0.37;;
70787;SDS011;68385;47.752;19.100;2023-08-12T04:24:58;1.00;;;0.20;;
70787;SDS011;68385;47.752;19.100;2023-08-12T04:28:00;1.15;;;0.40;;
70787;SDS011;68385;47.752;19.100;2023-08-12T04:31:05;0.85;;;0.20;;
70787;SDS011;68385;47.752;19.100;2023-08-12T04:34:07;0.85;;;0.20;;
70787;SDS011;68385;47.752;19.100;2023-08-12T04:37:09;0.77;;;0.20;;
70787;SDS011;68385;47.752;19.100;2023-08-12T04:40:12;0.80;;;0.23;;
70787;SDS011;68385;47.752;19.100;2023-08-12T04:43:14;1.23;;;0.62;;
70787;SDS011;68385;47.752;19.100;2023-08-12T04:46:15;0.90;;;0.20;;
70787;SDS011;68385;47.752;19.100;2023-08-12T04:49:17;0.80;;;0.20;;
70787;SDS011;68385;47.752;19.100;2023-08-12T04:52:19;1.27;;;0.47;;
70787;SDS011;68385;47.752;19.100;2023-08-12T04:55:22;1.10;;;0.35;;
70787;SDS011;68385;47.752;19.100;2023-08-12T04:58:26;0.80;;;0.20;;
70787;SDS011;68385;47.752;19.100;2023-08-12T05:01:28;0.98;;;0.40;;
70787;SDS011;68385;47.752;19.100;2023-08-12T05:04:30;0.80;;;0.20;;
70787;SDS011;68385;47.752;19.100;2023-08-12T05:07:32;0.87;;;0.27;;
70787;SDS011;68385;47.752;19.100;2023-08-12T05:10:35;1.12;;;0.30;;
70787;SDS011;68385;47.752;19.100;2023-08-12T05:13:37;0.80;;;0.20;;
70787;SDS011;68385;47.752;19.100;2023-08-12T05:16:39;0.90;;;0.30;;
70787;SDS011;68385;47.752;19.100;2023-08-12T05:19:41;1.30;;;0.40;;
70787;SDS011;68385;47.752;19.100;2023-08-12T05:22:43;1.00;;;0.33;;
70787;SDS011;68385;47.752;19.100;2023-08-12T05:25:45;0.98;;;0.30;;
70787;SDS011;68385;47.752;19.100;2023-08-12T05:28:47;1.20;;;0.30;;
70787;SDS011;68385;47.752;19.100;2023-08-12T05:31:49;0.80;;;0.20;;
70787;SDS011;68385;47.752;19.100;2023-08-12T05:34:52;0.90;;;0.20;;
70787;SDS011;68385;47.752;19.100;2023-08-12T05:37:54;0.97;;;0.30;;
70787;SDS011;68385;47.752;19.100;2023-08-12T05:40:55;1.65;;;0.85;;
70787;SDS011;68385;47.752;19.100;2023-08-12T05:43:57;1.10;;;0.32;;
70787;SDS011;68385;47.752;19.100;2023-08-12T05:46:59;1.65;;;0.50;;
70787;SDS011;68385;47.752;19.100;2023-08-12T05:50:01;1.17;;;0.37;;
70787;SDS011;68385;47.752;19.100;2023-08-12T05:53:03;1.20;;;0.50;;
70787;SDS011;68385;47.752;19.100;2023-08-12T05:56:05;1.05;;;0.30;;
70787;SDS011;68385;47.752;19.100;2023-08-12T05:59:07;1.10;;;0.30;;
70787;SDS011;68385;47.752;19.100;2023-08-12T06:02:09;1.00;;;0.30;;
70787;SDS011;68385;47.752;19.100;2023-08-12T06:05:12;1.00;;;0.30;;
70787;SDS011;68385;47.752;19.100;2023-08-12T06:08:14;0.93;;;0.30;;
70787;SDS011;68385;47.752;19.100;2023-08-12T06:11:16;1.42;;;0.30;;
70787;SDS011;68385;47.752;19.100;2023-08-12T06:14:18;1.20;;;0.40;;
70787;SDS011;68385;47.752;19.100;2023-08-12T06:17:19;1.25;;;0.50;;
70787;SDS011;68385;47.752;19.100;2023-08-12T06:20:22;1.05;;;0.30;;
70787;SDS011;68385;47.752;19.100;2023-08-12T06:23:24;1.00;;;0.30;;
70787;SDS011;68385;47.752;19.100;2023-08-12T06:26:28;1.37;;;0.45;;
70787;SDS011;68385;47.752;19.100;2023-08-12T06:29:30;1.20;;;0.30;;
70787;SDS011;68385;47.752;19.100;2023-08-12T06:32:33;1.02;;;0.30;;
70787;SDS011;68385;47.752;19.100;2023-08-12T06:35:35;2.17;;;0.60;;
70787;SDS011;68385;47.752;19.100;2023-08-12T06:38:37;1.40;;;0.30;;
70787;SDS011;68385;47.752;19.100;2023-08-12T06:41:39;1.73;;;0.40;;
70787;SDS011;68385;47.752;19.100;2023-08-12T06:44:41;1.37;;;0.30;;
70787;SDS011;68385;47.752;19.100;2023-08-12T06:47:43;1.15;;;0.35;;
70787;SDS011;68385;47.752;19.100;2023-08-12T06:50:45;1.50;;;0.32;;
70787;SDS011;68385;47.752;19.100;2023-08-12T06:53:47;1.27;;;0.33;;
70787;SDS011;68385;47.752;19.100;2023-08-12T06:56:49;1.10;;;0.30;;
70787;SDS011;68385;47.752;19.100;2023-08-12T06:59:50;1.30;;;0.40;;
70787;SDS011;68385;47.752;19.100;2023-08-12T07:02:52;1.10;;;0.30;;
70787;SDS011;68385;47.752;19.100;2023-08-12T07:05:54;1.10;;;0.30;;
70787;SDS011;68385;47.752;19.100;2023-08-12T07:08:56;1.20;;;0.30;;
70787;SDS011;68385;47.752;19.100;2023-08-12T07:11:58;1.12;;;0.40;;
70787;SDS011;68385;47.752;19.100;2023-08-12T07:15:00;1.33;;;0.40;;
70787;SDS011;68385;47.752;19.100;2023-08-12T07:18:04;1.50;;;0.60;;
70787;SDS011;68385;47.752;19.100;2023-08-12T07:21:06;2.00;;;0.68;;
70787;SDS011;68385;47.752;19.100;2023-08-12T07:24:08;1.30;;;0.40;;
70787;SDS011;68385;47.752;19.100;2023-08-12T07:27:10;1.50;;;0.50;;
70787;SDS011;68385;47.752;19.100;2023-08-12T07:30:12;2.22;;;0.60;;
70787;SDS011;68385;47.752;19.100;2023-08-12T07:33:14;1.40;;;0.40;;
70787;SDS011;68385;47.752;19.100;2023-08-12T07:36:16;2.35;;;0.70;;
70787;SDS011;68385;47.752;19.100;2023-08-12T07:39:18;1.47;;;0.60;;
70787;SDS011;68385;47.752;19.100;2023-08-12T07:42:20;1.55;;;0.75;;
70787;SDS011;68385;47.752;19.100;2023-08-12T07:45:23;1.42;;;0.40;;
70787;SDS011;68385;47.752;19.100;2023-08-12T07:48:25;1.50;;;0.40;;
70787;SDS011;68385;47.752;19.100;2023-08-12T07:51:27;1.37;;;0.43;;
70787;SDS011;68385;47.752;19.100;2023-08-12T07:54:29;2.07;;;0.77;;
70787;SDS011;68385;47.752;19.100;2023-08-12T07:57:31;1.30;;;0.40;;
70787;SDS011;68385;47.752;19.100;2023-08-12T08:00:33;1.87;;;0.50;;
70787;SDS011;68385;47.752;19.100;2023-08-12T08:03:35;1.60;;;0.60;;
70787;SDS011;68385;47.752;19.100;2023-08-12T08:06:37;1.98;;;0.70;;
70787;SDS011;68385;47.752;19.100;2023-08-12T08:09:39;1.40;;;0.50;;
70787;SDS011;68385;47.752;19.100;2023-08-12T08:12:41;1.67;;;0.50;;
70787;SDS011;68385;47.752;19.100;2023-08-12T08:15:43;1.30;;;0.40;;
70787;SDS011;68385;47.752;19.100;2023-08-12T08:18:45;1.70;;;0.60;;
70787;SDS011;68385;47.752;19.100;2023-08-12T08:21:47;2.05;;;0.93;;
70787;SDS011;68385;47.752;19.100;2023-08-12T08:24:49;1.87;;;0.70;;
70787;SDS011;68385;47.752;19.100;2023-08-12T08:27:51;2.17;;;0.70;;
70787;SDS011;68385;47.752;19.100;2023-08-12T08:30:53;1.98;;;0.88;;
70787;SDS011;68385;47.752;19.100;2023-08-12T08:33:55;1.40;;;0.50;;
70787;SDS011;68385;47.752;19.100;2023-08-12T08:36:57;1.92;;;0.70;;
70787;SDS011;68385;47.752;19.100;2023-08-12T08:39:58;1.43;;;0.50;;
70787;SDS011;68385;47.752;19.100;2023-08-12T08:43:02;2.03;;;0.75;;
70787;SDS011;68385;47.752;19.100;2023-08-12T08:46:05;1.65;;;0.75;;
70787;SDS011;68385;47.752;19.100;2023-08-12T08:49:07;1.48;;;0.50;;
70787;SDS011;68385;47.752;19.100;2023-08-12T08:52:10;1.30;;;0.40;;
70787;SDS011;68385;47.752;19.100;2023-08-12T08:55:12;1.23;;;0.40;;
70787;SDS011;68385;47.752;19.100;2023-08-12T08:58:15;2.30;;;0.68;;
70787;SDS011;68385;47.752;19.100;2023-08-12T09:01:23;1.60;;;0.70;;
70787;SDS011;68385;47.752;19.100;2023-08-12T09:04:25;2.03;;;0.90;;
70787;SDS011;68385;47.752;19.100;2023-08-12T09:07:29;1.65;;;0.60;;
70787;SDS011;68385;47.752;19.100;2023-08-12T09:10:31;1.40;;;0.50;;
70787;SDS011;68385;47.752;19.100;2023-08-12T09:13:33;1.40;;;0.50;;
70787;SDS011;68385;47.752;19.100;2023-08-12T09:16:35;1.55;;;0.62;;
70787;SDS011;68385;47.752;19.100;2023-08-12T09:19:37;1.52;;;0.70;;
70787;SDS011;68385;47.752;19.100;2023-08-12T09:22:42;1.70;;;0.70;;
70787;SDS011;68385;47.752;19.100;2023-08-12T09:25:44;1.87;;;0.90;;
70787;SDS011;68385;47.752;19.100;2023-08-12T09:28:47;1.62;;;0.70;;
70787;SDS011;68385;47.752;19.100;2023-08-12T09:31:49;1.62;;;0.70;;
70787;SDS011;68385;47.752;19.100;2023-08-12T09:34:52;1.80;;;0.70;;
70787;SDS011;68385;47.752;19.100;2023-08-12T09:37:55;1.80;;;0.60;;
70787;SDS011;68385;47.752;19.100;2023-08-12T09:40:56;1.50;;;0.60;;
70787;SDS011;68385;47.752;19.100;2023-08-12T09:43:58;1.50;;;0.60;;
70787;SDS011;68385;47.752;19.100;2023-08-12T09:47:03;3.42;;;1.25;;
70787;SDS011;68385;47.752;19.100;2023-08-12T09:50:06;1.60;;;0.70;;
70787;SDS011;68385;47.752;19.100;2023-08-12T09:53:09;1.50;;;0.65;;
70787;SDS011;68385;47.752;19.100;2023-08-12T09:56:12;1.60;;;0.60;;
70787;SDS011;68385;47.752;19.100;2023-08-12T09:59:19;1.85;;;0.62;;
70787;SDS011;68385;47.752;19.100;2023-08-12T10:02:24;1.60;;;0.70;;
70787;SDS011;68385;47.752;19.100;2023-08-12T10:05:31;1.60;;;0.62;;
70787;SDS011;68385;47.752;19.100;2023-08-12T10:08:33;1.50;;;0.57;;
70787;SDS011;68385;47.752;19.100;2023-08-12T10:11:37;1.80;;;0.80;;
70787;SDS011;68385;47.752;19.100;2023-08-12T10:14:39;1.73;;;0.70;;
70787;SDS011;68385;47.752;19.100;2023-08-12T10:17:41;1.52;;;0.68;;
70787;SDS011;68385;47.752;19.100;2023-08-12T10:20:44;1.70;;;0.88;;
70787;SDS011;68385;47.752;19.100;2023-08-12T10:23:46;1.98;;;0.90;;
70787;SDS011;68385;47.752;19.100;2023-08-12T10:26:48;1.63;;;0.57;;
70787;SDS011;68385;47.752;19.100;2023-08-12T10:29:51;1.60;;;0.60;;
70787;SDS011;68385;47.752;19.100;2023-08-12T10:32:53;1.70;;;0.60;;
70787;SDS011;68385;47.752;19.100;2023-08-12T10:35:55;1.90;;;0.75;;
70787;SDS011;68385;47.752;19.100;2023-08-12T10:38:57;1.70;;;0.73;;
70787;SDS011;68385;47.752;19.100;2023-08-12T10:41:59;1.30;;;0.40;;
70787;SDS011;68385;47.752;19.100;2023-08-12T10:45:03;1.67;;;0.80;;
70787;SDS011;68385;47.752;19.100;2023-08-12T10:51:10;2.12;;;0.82;;
70787;SDS011;68385;47.752;19.100;2023-08-12T10:57:36;1.83;;;0.60;;
70787;SDS011;68385;47.752;19.100;2023-08-12T11:00:42;1.40;;;0.50;;
70787;SDS011;68385;47.752;19.100;2023-08-12T11:03:45;2.65;;;1.15;;
70787;SDS011;68385;47.752;19.100;2023-08-12T11:06:48;1.52;;;0.55;;
70787;SDS011;68385;47.752;19.100;2023-08-12T11:09:51;1.50;;;0.60;;
70787;SDS011;68385;47.752;19.100;2023-08-12T11:12:57;1.30;;;0.50;;
70787;SDS011;68385;47.752;19.100;2023-08-12T11:16:09;1.40;;;0.50;;
70787;SDS011;68385;47.752;19.100;2023-08-12T11:19:11;1.60;;;0.70;;
70787;SDS011;68385;47.752;19.100;2023-08-12T11:22:13;1.70;;;0.70;;
70787;SDS011;68385;47.752;19.100;2023-08-12T11:25:16;1.80;;;0.90;;
70787;SDS011;68385;47.752;19.100;2023-08-12T11:28:21;2.10;;;0.80;;
70787;SDS011;68385;47.752;19.100;2023-08-12T11:31:24;2.00;;;0.90;;
70787;SDS011;68385;47.752;19.100;2023-08-12T11:34:26;1.70;;;0.80;;
70787;SDS011;68385;47.752;19.100;2023-08-12T11:37:29;1.65;;;0.60;;
70787;SDS011;68385;47.752;19.100;2023-08-12T11:40:31;1.65;;;0.73;;
70787;SDS011;68385;47.752;19.100;2023-08-12T11:43:34;1.40;;;0.50;;
70787;SDS011;68385;47.752;19.100;2023-08-12T11:46:35;1.65;;;0.70;;
70787;SDS011;68385;47.752;19.100;2023-08-12T11:49:37;2.45;;;1.20;;
70787;SDS011;68385;47.752;19.100;2023-08-12T11:52:39;2.10;;;1.05;;
70787;SDS011;68385;47.752;19.100;2023-08-12T11:55:42;2.00;;;1.00;;
70787;SDS011;68385;47.752;19.100;2023-08-12T11:58:44;1.73;;;0.60;;
70787;SDS011;68385;47.752;19.100;2023-08-12T12:01:54;1.87;;;0.88;;
70787;SDS011;68385;47.752;19.100;2023-08-12T12:04:56;1.70;;;0.80;;
70787;SDS011;68385;47.752;19.100;2023-08-12T12:07:58;2.30;;;1.25;;
70787;SDS011;68385;47.752;19.100;2023-08-12T12:11:04;2.00;;;1.00;;
70787;SDS011;68385;47.752;19.100;2023-08-12T12:14:07;1.50;;;0.60;;
70787;SDS011;68385;47.752;19.100;2023-08-12T12:17:10;2.00;;;1.35;;
70787;SDS011;68385;47.752;19.100;2023-08-12T12:20:12;1.80;;;0.80;;
70787;SDS011;68385;47.752;19.100;2023-08-12T12:23:15;2.30;;;1.08;;
70787;SDS011;68385;47.752;19.100;2023-08-12T12:26:17;2.05;;;0.80;;
70787;SDS011;68385;47.752;19.100;2023-08-12T12:29:19;1.50;;;0.60;;
70787;SDS011;68385;47.752;19.100;2023-08-12T12:32:21;1.77;;;0.73;;
70787;SDS011;68385;47.752;19.100;2023-08-12T12:35:23;2.80;;;1.05;;
70787;SDS011;68385;47.752;19.100;2023-08-12T12:38:25;1.95;;;0.60;;
70787;SDS011;68385;47.752;19.100;2023-08-12T12:41:28;2.17;;;1.05;;
70787;SDS011;68385;47.752;19.100;2023-08-12T12:44:30;1.63;;;0.67;;
70787;SDS011;68385;47.752;19.100;2023-08-12T12:47:31;1.60;;;0.62;;
70787;SDS011;68385;47.752;19.100;2023-08-12T12:50:33;1.73;;;0.73;;
70787;SDS011;68385;47.752;19.100;2023-08-12T12:53:35;1.83;;;0.75;;
70787;SDS011;68385;47.752;19.100;2023-08-12T12:56:37;2.58;;;0.90;;
70787;SDS011;68385;47.752;19.100;2023-08-12T12:59:39;1.70;;;0.70;;
70787;SDS011;68385;47.752;19.100;2023-08-12T13:02:41;1.75;;;0.62;;
70787;SDS011;68385;47.752;19.100;2023-08-12T13:05:43;1.73;;;0.73;;
70787;SDS011;68385;47.752;19.100;2023-08-12T13:08:45;2.85;;;1.02;;
70787;SDS011;68385;47.752;19.100;2023-08-12T13:11:47;2.37;;;0.80;;
70787;SDS011;68385;47.752;19.100;2023-08-12T13:14:48;4.40;;;0.83;;
70787;SDS011;68385;47.752;19.100;2023-08-12T13:17:50;1.60;;;0.70;;
70787;SDS011;68385;47.752;19.100;2023-08-12T13:20:52;1.98;;;0.82;;
70787;SDS011;68385;47.752;19.100;2023-08-12T13:23:54;1.50;;;0.55;;
70787;SDS011;68385;47.752;19.100;2023-08-12T13:26:59;1.70;;;0.70;;
70787;SDS011;68385;47.752;19.100;2023-08-12T13:30:01;2.10;;;0.80;;
70787;SDS011;68385;47.752;19.100;2023-08-12T13:33:02;1.70;;;0.70;;
70787;SDS011;68385;47.752;19.100;2023-08-12T13:36:05;1.52;;;0.50;;
70787;SDS011;68385;47.752;19.100;2023-08-12T13:39:07;1.80;;;0.65;;
70787;SDS011;68385;47.752;19.100;2023-08-12T13:42:09;1.60;;;0.62;;
70787;SDS011;68385;47.752;19.100;2023-08-12T13:45:12;1.80;;;0.80;;
70787;SDS011;68385;47.752;19.100;2023-08-12T13:48:14;1.45;;;0.57;;
70787;SDS011;68385;47.752;19.100;2023-08-12T13:51:16;1.77;;;0.65;;
70787;SDS011;68385;47.752;19.100;2023-08-12T13:54:18;2.50;;;0.80;;
70787;SDS011;68385;47.752;19.100;2023-08-12T13:57:20;1.70;;;0.70;;
70787;SDS011;68385;47.752;19.100;2023-08-12T14:00:22;1.80;;;0.77;;
70787;SDS011;68385;47.752;19.100;2023-08-12T14:03:25;1.60;;;0.70;;
70787;SDS011;68385;47.752;19.100;2023-08-12T14:06:27;1.87;;;0.60;;
70787;SDS011;68385;47.752;19.100;2023-08-12T14:09:29;3.22;;;0.60;;
70787;SDS011;68385;47.752;19.100;2023-08-12T14:12:31;1.80;;;0.70;;
70787;SDS011;68385;47.752;19.100;2023-08-12T14:15:33;1.70;;;0.70;;
70787;SDS011;68385;47.752;19.100;2023-08-12T14:18:35;1.50;;;0.60;;
70787;SDS011;68385;47.752;19.100;2023-08-12T14:21:37;3.00;;;1.10;;
70787;SDS011;68385;47.752;19.100;2023-08-12T14:24:39;1.95;;;0.80;;
70787;SDS011;68385;47.752;19.100;2023-08-12T14:27:41;1.60;;;0.62;;
70787;SDS011;68385;47.752;19.100;2023-08-12T14:30:42;1.50;;;0.60;;
70787;SDS011;68385;47.752;19.100;2023-08-12T14:33:44;3.08;;;0.70;;
70787;SDS011;68385;47.752;19.100;2023-08-12T14:36:46;1.80;;;0.73;;
70787;SDS011;68385;47.752;19.100;2023-08-12T14:39:48;1.90;;;0.90;;
70787;SDS011;68385;47.752;19.100;2023-08-12T14:42:52;1.65;;;0.68;;
70787;SDS011;68385;47.752;19.100;2023-08-12T14:45:54;1.40;;;0.50;;
70787;SDS011;68385;47.752;19.100;2023-08-12T14:48:56;1.40;;;0.50;;
70787;SDS011;68385;47.752;19.100;2023-08-12T14:51:58;1.67;;;0.60;;
70787;SDS011;68385;47.752;19.100;2023-08-12T14:55:00;1.83;;;0.70;;
70787;SDS011;68385;47.752;19.100;2023-08-12T14:58:02;1.77;;;0.80;;
70787;SDS011;68385;47.752;19.100;2023-08-12T15:01:04;1.53;;;0.50;;
70787;SDS011;68385;47.752;19.100;2023-08-12T15:04:07;3.05;;;0.60;;
70787;SDS011;68385;47.752;19.100;2023-08-12T15:07:09;1.60;;;0.60;;
70787;SDS011;68385;47.752;19.100;2023-08-12T15:10:11;1.95;;;0.73;;
70787;SDS011;68385;47.752;19.100;2023-08-12T15:13:14;2.62;;;0.70;;
70787;SDS011;68385;47.752;19.100;2023-08-12T15:16:16;2.00;;;0.80;;
70787;SDS011;68385;47.752;19.100;2023-08-12T15:19:18;2.58;;;0.70;;
70787;SDS011;68385;47.752;19.100;2023-08-12T15:22:20;1.60;;;0.62;;
70787;SDS011;68385;47.752;19.100;2023-08-12T15:25:22;1.50;;;0.52;;
70787;SDS011;68385;47.752;19.100;2023-08-12T15:28:24;1.92;;;0.80;;
70787;SDS011;68385;47.752;19.100;2023-08-12T15:31:26;1.40;;;0.50;;
70787;SDS011;68385;47.752;19.100;2023-08-12T15:34:28;1.60;;;0.70;;
70787;SDS011;68385;47.752;19.100;2023-08-12T15:37:29;3.35;;;0.88;;
70787;SDS011;68385;47.752;19.100;2023-08-12T15:40:31;1.70;;;0.70;;
70787;SDS011;68385;47.752;19.100;2023-08-12T15:43:33;2.12;;;0.80;;
70787;SDS011;68385;47.752;19.100;2023-08-12T15:46:35;3.17;;;1.10;;
70787;SDS011;68385;47.752;19.100;2023-08-12T15:49:38;1.67;;;0.60;;
70787;SDS011;68385;47.752;19.100;2023-08-12T15:52:40;2.78;;;0.70;;
70787;SDS011;68385;47.752;19.100;2023-08-12T15:55:42;1.52;;;0.50;;
70787;SDS011;68385;47.752;19.100;2023-08-12T15:58:44;1.95;;;0.60;;
70787;SDS011;68385;47.752;19.100;2023-08-12T16:01:46;1.90;;;0.50;;
70787;SDS011;68385;47.752;19.100;2023-08-12T16:04:48;1.42;;;0.50;;
70787;SDS011;68385;47.752;19.100;2023-08-12T16:07:50;1.70;;;0.60;;
70787;SDS011;68385;47.752;19.100;2023-08-12T16:10:52;1.20;;;0.40;;
70787;SDS011;68385;47.752;19.100;2023-08-12T16:13:56;1.75;;;0.57;;
70787;SDS011;68385;47.752;19.100;2023-08-12T16:16:58;2.83;;;1.40;;
70787;SDS011;68385;47.752;19.100;2023-08-12T16:20:01;1.30;;;0.40;;
70787;SDS011;68385;47.752;19.100;2023-08-12T16:23:04;1.30;;;0.40;;
70787;SDS011;68385;47.752;19.100;2023-08-12T16:26:05;1.37;;;0.50;;
70787;SDS011;68385;47.752;19.100;2023-08-12T16:29:07;2.85;;;0.60;;
70787;SDS011;68385;47.752;19.100;2023-08-12T16:32:09;1.43;;;0.53;;
70787;SDS011;68385;47.752;19.100;2023-08-12T16:35:12;1.60;;;0.50;;
70787;SDS011;68385;47.752;19.100;2023-08-12T16:38:14;1.92;;;0.50;;
70787;SDS011;68385;47.752;19.100;2023-08-12T16:41:16;1.70;;;0.60;;
70787;SDS011;68385;47.752;19.100;2023-08-12T16:44:18;1.60;;;0.60;;
70787;SDS011;68385;47.752;19.100;2023-08-12T16:47:20;2.47;;;0.70;;
70787;SDS011;68385;47.752;19.100;2023-08-12T16:50:21;1.60;;;0.50;;
70787;SDS011;68385;47.752;19.100;2023-08-12T16:53:23;1.65;;;0.55;;
70787;SDS011;68385;47.752;19.100;2023-08-12T16:56:25;1.48;;;0.45;;
70787;SDS011;68385;47.752;19.100;2023-08-12T16:59:27;1.60;;;0.60;;
70787;SDS011;68385;47.752;19.100;2023-08-12T17:02:29;2.97;;;0.60;;
70787;SDS011;68385;47.752;19.100;2023-08-12T17:05:31;1.85;;;0.57;;
70787;SDS011;68385;47.752;19.100;2023-08-12T17:08:32;1.58;;;0.57;;
70787;SDS011;68385;47.752;19.100;2023-08-12T17:11:34;1.50;;;0.60;;
70787;SDS011;68385;47.752;19.100;2023-08-12T17:14:36;1.23;;;0.40;;
70787;SDS011;68385;47.752;19.100;2023-08-12T17:17:38;1.43;;;0.40;;
70787;SDS011;68385;47.752;19.100;2023-08-12T17:20:41;1.50;;;0.55;;
70787;SDS011;68385;47.752;19.100;2023-08-12T17:23:43;2.45;;;0.70;;
70787;SDS011;68385;47.752;19.100;2023-08-12T17:26:45;1.55;;;0.50;;
70787;SDS011;68385;47.752;19.100;2023-08-12T17:29:47;2.03;;;0.52;;
70787;SDS011;68385;47.752;19.100;2023-08-12T17:32:49;1.90;;;0.90;;
70787;SDS011;68385;47.752;19.100;2023-08-12T17:35:51;1.95;;;0.73;;
70787;SDS011;68385;47.752;19.100;2023-08-12T17:38:53;3.80;;;0.65;;
70787;SDS011;68385;47.752;19.100;2023-08-12T17:41:55;2.08;;;0.60;;
70787;SDS011;68385;47.752;19.100;2023-08-12T17:44:57;1.55;;;0.50;;
70787;SDS011;68385;47.752;19.100;2023-08-12T17:47:59;1.93;;;0.57;;
70787;SDS011;68385;47.752;19.100;2023-08-12T17:51:04;1.20;;;0.35;;
70787;SDS011;68385;47.752;19.100;2023-08-12T17:54:13;2.17;;;0.73;;
70787;SDS011;68385;47.752;19.100;2023-08-12T17:57:15;1.67;;;0.50;;
70787;SDS011;68385;47.752;19.100;2023-08-12T18:00:17;1.73;;;0.52;;
70787;SDS011;68385;47.752;19.100;2023-08-12T18:03:21;1.50;;;0.60;;
70787;SDS011;68385;47.752;19.100;2023-08-12T18:06:23;1.60;;;0.68;;
70787;SDS011;68385;47.752;19.100;2023-08-12T18:09:25;1.62;;;0.60;;
70787;SDS011;68385;47.752;19.100;2023-08-12T18:12:27;1.60;;;0.35;;
70787;SDS011;68385;47.752;19.100;2023-08-12T18:15:31;2.00;;;0.45;;
70787;SDS011;68385;47.752;19.100;2023-08-12T18:18:33;1.90;;;0.80;;